METAR Data
IDs: Format: Raw Decoded Include TAF

Data at: 2203 UTC 18 Apr 2021

KFXE 182153Z 13011KT 10SM SCT050 29/23 A2986 RMK AO2 SLP114 T02940228
KFXE 182053Z 14011KT 10SM FEW050 SCT080 29/22 A2987 RMK AO2 SLP118 T02940222 56014
KFXE 181953Z 15010KT 10SM SCT055 BKN070 30/22 A2988 RMK AO2 SLP120 T03000222
KFXE 181853Z 14013KT 10SM FEW041 SCT048 BKN060 31/22 A2990 RMK AO2 SLP126 T03060217
KFXE 181753Z 13011KT 10SM FEW038 SCT047 BKN060 31/22 A2991 RMK AO2 SLP132 T03060217 10311 20233 58018
KFXE 181653Z 10SM SCT045 30/21 A2993 RMK AO2 SLP137 T03000211
KFXE 181553Z 19009KT 160V240 10SM SCT039 30/19 A2996 RMK AO2 SLP147 T03000194
KFXE 181453Z 19008KT 10SM CLR 29/19 A2997 RMK AO2 SLP150 T02890189 50000
KFXE 181353Z VRB03KT 10SM CLR 27/19 A2998 RMK AO2 SLP153 T02720194
KFXE 181253Z 24003KT 10SM CLR 26/21 A2997 RMK AO2 SLP152 T02560211
KFXE 181153Z 00000KT 10SM FEW065 23/22 A2997 RMK AO2 SLP150 T02330222 10233 20217 53010
KFXE 181053Z 00000KT 10SM CLR 22/21 A2995 RMK AO2 SLP144 T02220211
KFXE 180953Z 21004KT 10SM FEW047 SCT060 23/21 A2994 RMK AO2 SLP141 T02280211
KFXE 180853Z 25004KT 10SM SCT047 SCT055 22/21 A2994 RMK AO2 SLP139 T02170206 53006
KFXE 180753Z 00000KT 10SM FEW047 SCT055 22/21 A2993 RMK AO2 SLP136 T02220206
KFXE 180653Z 19004KT 10SM SCT049 23/21 A2992 RMK AO2 SLP135 T02280211
KFXE 180553Z 30004KT 10SM CLR 23/21 A2992 RMK AO2 SLP133 T02280211 10278 20228 50002
KFXE 180453Z 30006KT 10SM CLR 23/21 A2992 RMK AO2 SLP133 T02330206 403280206
KFXE 180353Z 26007KT 10SM CLR 23/19 A2992 RMK AO2 SLP134 T02280194
KFXE 180253Z 26006KT 10SM CLR 23/18 A2991 RMK AO2 SLP130 T02330183 51015
KFXE 180153Z 25006KT 10SM CLR 24/17 A2990 RMK AO2 SLP128 T02390172
KFXE 180053Z 24007KT 10SM CLR 27/17 A2988 RMK AO2 SLP120 T02670172
KFXE 172353Z 23012KT 10SM FEW030 28/18 A2986 RMK AO2 SLP115 T02780178 10328 20278 53008
KFXE 172253Z AUTO 23011G21KT 10SM CLR 29/16 A2985 RMK AO2 SLP111 T02940161 TSNO
KFXE 172153Z AUTO 23011KT 10SM CLR 31/17 A2984 RMK AO2 SLP108 T03110167 TSNO
KFXE 172053Z AUTO 24012KT 10SM CLR 32/17 A2984 RMK AO2 SLP107 T03170172 56018 TSNO
KFXE 171953Z 22016G21KT 10SM CLR 32/17 A2986 RMK AO2 SLP112 T03220167
KFXE 171853Z 27012G19KT 10SM SCT050 32/18 A2988 RMK AO2 SLP120 T03220178
KFXE 171753Z 24010G19KT 10SM SCT020 32/18 A2990 RMK AO2 SLP126 T03170183 10317 20222 58015
KFXE 171653Z 21011G18KT 10SM CLR 31/18 A2990 RMK AO2 SLP128 T03060183
KFXE 171553Z 24011G15KT 10SM FEW038 29/19 A2993 RMK AO2 SLP139 T02940189
KFXE 171453Z 23009KT 10SM SCT034 28/20 A2994 RMK AO2 SLP140 T02830200 53013
KFXE 171353Z 22009KT 10SM SCT030 27/21 A2992 RMK AO2 SLP133 T02670211
KFXE 171253Z 21005KT 10SM CLR 25/22 A2991 RMK AO2 SLP130 T02500217
KFXE 171153Z 00000KT 10SM CLR 22/22 A2990 RMK AO2 SLP128 T02220217 10228 20206 53014
KFXE 171053Z 00000KT 10SM CLR 21/20 A2989 RMK AO2 SLP122 T02110200